sensor_id;sensor_type;location;lat;lon;timestamp;pressure;altitude;pressure_sealevel;temperature;humidity
38289;BME280;24092;53.370;-6.588;2022-08-21T00:00:22;100714.33;;;11.42;100.00
38289;BME280;24092;53.370;-6.588;2022-08-21T00:02:52;100709.29;;;10.99;100.00
38289;BME280;24092;53.370;-6.588;2022-08-21T00:05:21;100711.96;;;10.19;100.00
38289;BME280;24092;53.370;-6.588;2022-08-21T00:07:48;100710.11;;;10.26;100.00
38289;BME280;24092;53.370;-6.588;2022-08-21T00:10:16;100711.99;;;10.56;100.00
38289;BME280;24092;53.370;-6.588;2022-08-21T00:12:44;100712.12;;;10.16;100.00
38289;BME280;24092;53.370;-6.588;2022-08-21T00:15:15;100714.25;;;9.73;100.00
38289;BME280;24092;53.370;-6.588;2022-08-21T00:17:43;100718.64;;;9.89;100.00
38289;BME280;24092;53.370;-6.588;2022-08-21T00:20:12;100718.20;;;10.09;100.00
38289;BME280;24092;53.370;-6.588;2022-08-21T00:22:39;100724.59;;;10.03;100.00
38289;BME280;24092;53.370;-6.588;2022-08-21T00:25:08;100727.54;;;10.24;100.00
38289;BME280;24092;53.370;-6.588;2022-08-21T00:27:35;100725.77;;;10.05;100.00
38289;BME280;24092;53.370;-6.588;2022-08-21T00:30:04;100724.79;;;9.86;100.00
38289;BME280;24092;53.370;-6.588;2022-08-21T00:32:32;100721.42;;;9.91;100.00
38289;BME280;24092;53.370;-6.588;2022-08-21T00:34:59;100723.21;;;9.78;100.00
38289;BME280;24092;53.370;-6.588;2022-08-21T00:37:26;100722.90;;;9.96;100.00
38289;BME280;24092;53.370;-6.588;2022-08-21T00:39:53;100718.57;;;9.85;100.00
38289;BME280;24092;53.370;-6.588;2022-08-21T00:42:20;100715.80;;;9.92;100.00
38289;BME280;24092;53.370;-6.588;2022-08-21T00:44:49;100717.14;;;10.12;100.00
38289;BME280;24092;53.370;-6.588;2022-08-21T00:47:17;100717.88;;;9.51;100.00
38289;BME280;24092;53.370;-6.588;2022-08-21T00:49:45;100719.72;;;9.96;100.00
38289;BME280;24092;53.370;-6.588;2022-08-21T00:52:16;100717.80;;;9.64;100.00
38289;BME280;24092;53.370;-6.588;2022-08-21T00:54:46;100720.81;;;10.06;100.00
38289;BME280;24092;53.370;-6.588;2022-08-21T00:57:22;100719.62;;;9.92;100.00
38289;BME280;24092;53.370;-6.588;2022-08-21T00:59:51;100719.71;;;9.71;100.00
38289;BME280;24092;53.370;-6.588;2022-08-21T01:02:21;100723.62;;;9.88;100.00
38289;BME280;24092;53.370;-6.588;2022-08-21T01:04:49;100722.73;;;9.76;100.00
38289;BME280;24092;53.370;-6.588;2022-08-21T01:07:16;100721.01;;;9.63;100.00
38289;BME280;24092;53.370;-6.588;2022-08-21T01:09:44;100722.97;;;9.97;100.00
38289;BME280;24092;53.370;-6.588;2022-08-21T01:12:13;100724.58;;;9.55;100.00
38289;BME280;24092;53.370;-6.588;2022-08-21T01:14:42;100725.94;;;8.86;100.00
38289;BME280;24092;53.370;-6.588;2022-08-21T01:17:10;100729.13;;;9.05;100.00
38289;BME280;24092;53.370;-6.588;2022-08-21T01:19:38;100729.17;;;8.42;100.00
38289;BME280;24092;53.370;-6.588;2022-08-21T01:22:05;100732.35;;;8.59;100.00
38289;BME280;24092;53.370;-6.588;2022-08-21T01:24:33;100732.96;;;8.42;100.00
38289;BME280;24092;53.370;-6.588;2022-08-21T01:27:01;100728.44;;;8.79;100.00
38289;BME280;24092;53.370;-6.588;2022-08-21T01:29:32;100730.86;;;8.27;100.00
38289;BME280;24092;53.370;-6.588;2022-08-21T01:32:06;100732.80;;;8.32;100.00
38289;BME280;24092;53.370;-6.588;2022-08-21T01:34:36;100731.07;;;8.09;100.00
38289;BME280;24092;53.370;-6.588;2022-08-21T01:37:05;100732.11;;;8.47;100.00
38289;BME280;24092;53.370;-6.588;2022-08-21T01:39:33;100734.29;;;8.39;100.00
38289;BME280;24092;53.370;-6.588;2022-08-21T01:42:00;100738.06;;;8.51;100.00
38289;BME280;24092;53.370;-6.588;2022-08-21T01:44:27;100745.45;;;8.58;100.00
38289;BME280;24092;53.370;-6.588;2022-08-21T01:46:57;100749.92;;;8.48;100.00
38289;BME280;24092;53.370;-6.588;2022-08-21T01:49:24;100751.72;;;8.79;100.00
38289;BME280;24092;53.370;-6.588;2022-08-21T01:51:51;100749.48;;;8.61;100.00
38289;BME280;24092;53.370;-6.588;2022-08-21T01:54:18;100744.07;;;8.36;100.00
38289;BME280;24092;53.370;-6.588;2022-08-21T01:56:48;100744.97;;;8.49;100.00
38289;BME280;24092;53.370;-6.588;2022-08-21T01:59:16;100742.65;;;8.22;100.00
38289;BME280;24092;53.370;-6.588;2022-08-21T02:01:43;100739.16;;;9.00;100.00
38289;BME280;24092;53.370;-6.588;2022-08-21T02:04:11;100739.37;;;8.82;100.00
38289;BME280;24092;53.370;-6.588;2022-08-21T02:06:38;100734.81;;;8.45;100.00
38289;BME280;24092;53.370;-6.588;2022-08-21T02:09:09;100732.95;;;7.84;100.00
38289;BME280;24092;53.370;-6.588;2022-08-21T02:11:38;100737.54;;;7.96;100.00
38289;BME280;24092;53.370;-6.588;2022-08-21T02:14:05;100742.65;;;8.03;100.00
38289;BME280;24092;53.370;-6.588;2022-08-21T02:16:32;100739.37;;;8.06;100.00
38289;BME280;24092;53.370;-6.588;2022-08-21T02:18:59;100736.83;;;8.00;100.00
38289;BME280;24092;53.370;-6.588;2022-08-21T02:21:26;100732.11;;;7.82;100.00
38289;BME280;24092;53.370;-6.588;2022-08-21T02:23:53;100735.64;;;7.36;100.00
38289;BME280;24092;53.370;-6.588;2022-08-21T02:26:20;100732.72;;;7.43;100.00
38289;BME280;24092;53.370;-6.588;2022-08-21T02:28:47;100736.76;;;7.60;100.00
38289;BME280;24092;53.370;-6.588;2022-08-21T02:31:14;100737.80;;;7.14;100.00
38289;BME280;24092;53.370;-6.588;2022-08-21T02:33:41;100729.66;;;7.82;100.00
38289;BME280;24092;53.370;-6.588;2022-08-21T02:36:09;100732.32;;;7.32;100.00
38289;BME280;24092;53.370;-6.588;2022-08-21T02:38:39;100730.84;;;7.65;100.00
38289;BME280;24092;53.370;-6.588;2022-08-21T02:41:10;100729.01;;;6.69;100.00
38289;BME280;24092;53.370;-6.588;2022-08-21T02:43:38;100730.64;;;7.48;100.00
38289;BME280;24092;53.370;-6.588;2022-08-21T02:46:07;100729.47;;;6.90;100.00
38289;BME280;24092;53.370;-6.588;2022-08-21T02:48:35;100727.23;;;7.84;100.00
38289;BME280;24092;53.370;-6.588;2022-08-21T02:51:05;100731.50;;;7.32;100.00
38289;BME280;24092;53.370;-6.588;2022-08-21T02:53:33;100724.90;;;7.50;100.00
38289;BME280;24092;53.370;-6.588;2022-08-21T02:56:03;100722.63;;;7.33;100.00
38289;BME280;24092;53.370;-6.588;2022-08-21T02:58:34;100722.50;;;7.78;100.00
38289;BME280;24092;53.370;-6.588;2022-08-21T03:01:02;100722.40;;;8.06;100.00
38289;BME280;24092;53.370;-6.588;2022-08-21T03:03:29;100723.71;;;8.18;100.00
38289;BME280;24092;53.370;-6.588;2022-08-21T03:05:57;100726.11;;;7.88;100.00
38289;BME280;24092;53.370;-6.588;2022-08-21T03:08:23;100733.55;;;7.95;100.00
38289;BME280;24092;53.370;-6.588;2022-08-21T03:10:52;100729.43;;;7.84;100.00
38289;BME280;24092;53.370;-6.588;2022-08-21T03:13:20;100731.53;;;8.00;100.00
38289;BME280;24092;53.370;-6.588;2022-08-21T03:15:48;100731.73;;;8.08;100.00
38289;BME280;24092;53.370;-6.588;2022-08-21T03:18:17;100728.26;;;7.77;100.00
38289;BME280;24092;53.370;-6.588;2022-08-21T03:20:45;100728.87;;;8.07;100.00
38289;BME280;24092;53.370;-6.588;2022-08-21T03:23:13;100728.07;;;7.76;100.00
38289;BME280;24092;53.370;-6.588;2022-08-21T03:25:41;100727.97;;;7.94;100.00
38289;BME280;24092;53.370;-6.588;2022-08-21T03:28:12;100724.75;;;7.85;100.00
38289;BME280;24092;53.370;-6.588;2022-08-21T03:30:40;100728.59;;;7.76;100.00
38289;BME280;24092;53.370;-6.588;2022-08-21T03:33:07;100729.10;;;7.74;100.00
38289;BME280;24092;53.370;-6.588;2022-08-21T03:35:34;100725.93;;;7.79;100.00
38289;BME280;24092;53.370;-6.588;2022-08-21T03:38:01;100724.61;;;7.69;100.00
38289;BME280;24092;53.370;-6.588;2022-08-21T03:40:28;100726.17;;;7.63;100.00
38289;BME280;24092;53.370;-6.588;2022-08-21T03:42:56;100730.30;;;7.49;100.00
38289;BME280;24092;53.370;-6.588;2022-08-21T03:45:23;100732.98;;;6.94;100.00
38289;BME280;24092;53.370;-6.588;2022-08-21T03:47:54;100741.02;;;7.66;100.00
38289;BME280;24092;53.370;-6.588;2022-08-21T03:50:23;100746.07;;;7.74;100.00
38289;BME280;24092;53.370;-6.588;2022-08-21T03:52:50;100748.84;;;7.75;100.00
38289;BME280;24092;53.370;-6.588;2022-08-21T03:55:18;100747.10;;;7.44;100.00
38289;BME280;24092;53.370;-6.588;2022-08-21T03:57:45;100746.56;;;7.54;100.00
38289;BME280;24092;53.370;-6.588;2022-08-21T04:00:14;100748.83;;;7.46;100.00
38289;BME280;24092;53.370;-6.588;2022-08-21T04:02:43;100750.17;;;7.86;100.00
38289;BME280;24092;53.370;-6.588;2022-08-21T04:05:12;100750.20;;;7.23;100.00
38289;BME280;24092;53.370;-6.588;2022-08-21T04:07:39;100758.28;;;7.34;100.00
38289;BME280;24092;53.370;-6.588;2022-08-21T04:10:08;100759.84;;;7.29;100.00
38289;BME280;24092;53.370;-6.588;2022-08-21T04:12:35;100757.57;;;8.02;100.00
38289;BME280;24092;53.370;-6.588;2022-08-21T04:15:03;100759.48;;;7.53;100.00
38289;BME280;24092;53.370;-6.588;2022-08-21T04:17:30;100759.06;;;7.55;100.00
38289;BME280;24092;53.370;-6.588;2022-08-21T04:19:57;100756.75;;;7.53;100.00
38289;BME280;24092;53.370;-6.588;2022-08-21T04:22:24;100755.61;;;6.94;100.00
38289;BME280;24092;53.370;-6.588;2022-08-21T04:24:51;100762.49;;;7.16;100.00
38289;BME280;24092;53.370;-6.588;2022-08-21T04:27:18;100761.88;;;6.68;100.00
38289;BME280;24092;53.370;-6.588;2022-08-21T04:29:45;100768.48;;;7.20;100.00
38289;BME280;24092;53.370;-6.588;2022-08-21T04:32:12;100773.98;;;7.06;100.00
38289;BME280;24092;53.370;-6.588;2022-08-21T04:34:39;100775.19;;;6.93;100.00
38289;BME280;24092;53.370;-6.588;2022-08-21T04:37:07;100780.21;;;7.31;100.00
38289;BME280;24092;53.370;-6.588;2022-08-21T04:39:34;100782.00;;;6.85;100.00
38289;BME280;24092;53.370;-6.588;2022-08-21T04:42:01;100781.27;;;6.77;100.00
38289;BME280;24092;53.370;-6.588;2022-08-21T04:44:28;100777.57;;;6.39;100.00
38289;BME280;24092;53.370;-6.588;2022-08-21T04:46:55;100778.60;;;5.20;100.00
38289;BME280;24092;53.370;-6.588;2022-08-21T04:49:22;100783.27;;;6.27;100.00
38289;BME280;24092;53.370;-6.588;2022-08-21T04:51:50;100785.90;;;6.24;100.00
38289;BME280;24092;53.370;-6.588;2022-08-21T04:54:20;100784.22;;;6.09;100.00
38289;BME280;24092;53.370;-6.588;2022-08-21T04:56:51;100791.69;;;6.33;100.00
38289;BME280;24092;53.370;-6.588;2022-08-21T04:59:22;100794.88;;;6.21;100.00
38289;BME280;24092;53.370;-6.588;2022-08-21T05:01:51;100790.37;;;6.25;100.00
38289;BME280;24092;53.370;-6.588;2022-08-21T05:04:23;100791.95;;;6.27;100.00
38289;BME280;24092;53.370;-6.588;2022-08-21T05:06:53;100796.77;;;6.46;100.00
38289;BME280;24092;53.370;-6.588;2022-08-21T05:09:23;100795.97;;;7.21;100.00
38289;BME280;24092;53.370;-6.588;2022-08-21T05:11:51;100792.58;;;6.89;100.00
38289;BME280;24092;53.370;-6.588;2022-08-21T05:14:19;100792.09;;;6.41;100.00
38289;BME280;24092;53.370;-6.588;2022-08-21T05:16:46;100791.80;;;6.74;100.00
38289;BME280;24092;53.370;-6.588;2022-08-21T05:19:14;100793.92;;;6.72;100.00
38289;BME280;24092;53.370;-6.588;2022-08-21T05:21:43;100799.25;;;6.91;100.00
38289;BME280;24092;53.370;-6.588;2022-08-21T05:24:10;100799.27;;;6.64;100.00
38289;BME280;24092;53.370;-6.588;2022-08-21T05:26:38;100798.04;;;7.84;100.00
38289;BME280;24092;53.370;-6.588;2022-08-21T05:29:05;100799.62;;;6.92;100.00
38289;BME280;24092;53.370;-6.588;2022-08-21T05:31:33;100799.08;;;7.02;100.00
38289;BME280;24092;53.370;-6.588;2022-08-21T05:34:00;100799.04;;;6.84;100.00
38289;BME280;24092;53.370;-6.588;2022-08-21T05:36:27;100795.72;;;7.01;100.00
38289;BME280;24092;53.370;-6.588;2022-08-21T05:38:54;100791.76;;;7.15;100.00
38289;BME280;24092;53.370;-6.588;2022-08-21T05:41:21;100792.90;;;7.01;100.00
38289;BME280;24092;53.370;-6.588;2022-08-21T05:43:48;100790.61;;;6.88;100.00
38289;BME280;24092;53.370;-6.588;2022-08-21T05:46:15;100791.74;;;7.70;100.00
38289;BME280;24092;53.370;-6.588;2022-08-21T05:48:42;100793.69;;;7.09;100.00
38289;BME280;24092;53.370;-6.588;2022-08-21T05:51:11;100790.34;;;6.80;100.00
38289;BME280;24092;53.370;-6.588;2022-08-21T05:53:40;100796.60;;;6.82;100.00
38289;BME280;24092;53.370;-6.588;2022-08-21T05:56:08;100801.88;;;7.09;100.00
38289;BME280;24092;53.370;-6.588;2022-08-21T05:58:35;100804.80;;;7.08;100.00
38289;BME280;24092;53.370;-6.588;2022-08-21T06:01:03;100804.79;;;7.17;100.00
38289;BME280;24092;53.370;-6.588;2022-08-21T06:03:34;100802.50;;;7.32;100.00
38289;BME280;24092;53.370;-6.588;2022-08-21T06:06:01;100805.64;;;7.53;100.00
38289;BME280;24092;53.370;-6.588;2022-08-21T06:08:29;100803.61;;;7.45;100.00
38289;BME280;24092;53.370;-6.588;2022-08-21T06:10:59;100809.13;;;7.38;100.00
38289;BME280;24092;53.370;-6.588;2022-08-21T06:13:28;100814.17;;;7.89;100.00
38289;BME280;24092;53.370;-6.588;2022-08-21T06:16:06;100816.15;;;8.09;100.00
38289;BME280;24092;53.370;-6.588;2022-08-21T06:18:35;100822.33;;;8.06;100.00
38289;BME280;24092;53.370;-6.588;2022-08-21T06:21:04;100819.35;;;7.99;100.00
38289;BME280;24092;53.370;-6.588;2022-08-21T06:23:32;100820.77;;;8.33;100.00
38289;BME280;24092;53.370;-6.588;2022-08-21T06:26:00;100822.16;;;8.85;100.00
38289;BME280;24092;53.370;-6.588;2022-08-21T06:28:27;100822.44;;;8.19;100.00
38289;BME280;24092;53.370;-6.588;2022-08-21T06:30:54;100826.79;;;8.42;100.00
38289;BME280;24092;53.370;-6.588;2022-08-21T06:33:21;100830.10;;;8.45;100.00
38289;BME280;24092;53.370;-6.588;2022-08-21T06:35:48;100830.03;;;8.02;100.00
38289;BME280;24092;53.370;-6.588;2022-08-21T06:38:15;100835.49;;;7.85;100.00
38289;BME280;24092;53.370;-6.588;2022-08-21T06:40:42;100839.77;;;7.88;100.00
38289;BME280;24092;53.370;-6.588;2022-08-21T06:43:14;100844.33;;;8.03;100.00
38289;BME280;24092;53.370;-6.588;2022-08-21T06:45:43;100852.03;;;8.02;100.00
38289;BME280;24092;53.370;-6.588;2022-08-21T06:48:10;100853.05;;;8.79;100.00
38289;BME280;24092;53.370;-6.588;2022-08-21T06:50:37;100848.39;;;8.73;100.00
38289;BME280;24092;53.370;-6.588;2022-08-21T06:53:10;100854.31;;;9.36;100.00
38289;BME280;24092;53.370;-6.588;2022-08-21T06:55:39;100855.70;;;8.92;100.00
38289;BME280;24092;53.370;-6.588;2022-08-21T06:58:07;100856.97;;;9.71;100.00
38289;BME280;24092;53.370;-6.588;2022-08-21T07:00:37;100856.53;;;9.59;100.00
38289;BME280;24092;53.370;-6.588;2022-08-21T07:03:05;100852.82;;;8.98;100.00
38289;BME280;24092;53.370;-6.588;2022-08-21T07:05:33;100855.02;;;8.87;100.00
38289;BME280;24092;53.370;-6.588;2022-08-21T07:08:00;100857.71;;;9.53;100.00
38289;BME280;24092;53.370;-6.588;2022-08-21T07:10:27;100857.23;;;9.33;100.00
38289;BME280;24092;53.370;-6.588;2022-08-21T07:12:54;100856.06;;;9.91;100.00
38289;BME280;24092;53.370;-6.588;2022-08-21T07:15:21;100855.82;;;10.25;100.00
38289;BME280;24092;53.370;-6.588;2022-08-21T07:17:48;100848.32;;;10.50;100.00
38289;BME280;24092;53.370;-6.588;2022-08-21T07:20:15;100854.97;;;10.43;100.00
38289;BME280;24092;53.370;-6.588;2022-08-21T07:22:44;100864.01;;;11.24;100.00
38289;BME280;24092;53.370;-6.588;2022-08-21T07:25:10;100870.47;;;11.64;100.00
38289;BME280;24092;53.370;-6.588;2022-08-21T07:27:37;100864.56;;;12.27;100.00
38289;BME280;24092;53.370;-6.588;2022-08-21T07:30:06;100867.84;;;11.59;100.00
38289;BME280;24092;53.370;-6.588;2022-08-21T07:32:33;100875.11;;;11.44;100.00
38289;BME280;24092;53.370;-6.588;2022-08-21T07:35:00;100878.47;;;11.04;100.00
38289;BME280;24092;53.370;-6.588;2022-08-21T07:37:27;100882.91;;;11.29;100.00
38289;BME280;24092;53.370;-6.588;2022-08-21T07:39:54;100882.49;;;11.14;100.00
38289;BME280;24092;53.370;-6.588;2022-08-21T07:42:21;100883.33;;;10.95;100.00
38289;BME280;24092;53.370;-6.588;2022-08-21T07:44:48;100885.73;;;10.39;100.00
38289;BME280;24092;53.370;-6.588;2022-08-21T07:47:15;100884.85;;;10.87;100.00
38289;BME280;24092;53.370;-6.588;2022-08-21T07:49:42;100880.26;;;10.92;100.00
38289;BME280;24092;53.370;-6.588;2022-08-21T07:52:09;100877.63;;;10.92;100.00
38289;BME280;24092;53.370;-6.588;2022-08-21T07:54:36;100878.31;;;10.21;100.00
38289;BME280;24092;53.370;-6.588;2022-08-21T07:57:03;100880.08;;;10.87;100.00
38289;BME280;24092;53.370;-6.588;2022-08-21T07:59:30;100879.13;;;11.44;100.00
38289;BME280;24092;53.370;-6.588;2022-08-21T08:01:57;100883.27;;;11.37;100.00
38289;BME280;24092;53.370;-6.588;2022-08-21T08:04:25;100881.26;;;12.38;100.00
38289;BME280;24092;53.370;-6.588;2022-08-21T08:06:52;100882.44;;;13.18;100.00
38289;BME280;24092;53.370;-6.588;2022-08-21T08:09:19;100882.81;;;13.40;100.00
38289;BME280;24092;53.370;-6.588;2022-08-21T08:11:46;100885.81;;;13.84;100.00
38289;BME280;24092;53.370;-6.588;2022-08-21T08:14:13;100889.17;;;13.89;100.00
38289;BME280;24092;53.370;-6.588;2022-08-21T08:16:40;100889.03;;;14.13;100.00
38289;BME280;24092;53.370;-6.588;2022-08-21T08:19:06;100886.24;;;13.64;100.00
38289;BME280;24092;53.370;-6.588;2022-08-21T08:21:34;100888.93;;;13.50;100.00
38289;BME280;24092;53.370;-6.588;2022-08-21T08:24:01;100887.70;;;14.94;100.00
38289;BME280;24092;53.370;-6.588;2022-08-21T08:26:29;100884.10;;;13.64;100.00
38289;BME280;24092;53.370;-6.588;2022-08-21T08:28:55;100879.38;;;13.48;100.00
38289;BME280;24092;53.370;-6.588;2022-08-21T08:31:22;100881.16;;;14.06;100.00
38289;BME280;24092;53.370;-6.588;2022-08-21T08:33:49;100873.77;;;14.35;100.00
38289;BME280;24092;53.370;-6.588;2022-08-21T08:36:17;100871.48;;;14.55;100.00
38289;BME280;24092;53.370;-6.588;2022-08-21T08:38:45;100869.29;;;14.66;100.00
38289;BME280;24092;53.370;-6.588;2022-08-21T08:41:14;100871.22;;;13.35;100.00
38289;BME280;24092;53.370;-6.588;2022-08-21T08:43:49;100875.20;;;13.34;100.00
38289;BME280;24092;53.370;-6.588;2022-08-21T08:46:23;100878.99;;;13.53;100.00
38289;BME280;24092;53.370;-6.588;2022-08-21T08:48:54;100879.77;;;13.10;100.00
38289;BME280;24092;53.370;-6.588;2022-08-21T08:51:26;100881.35;;;13.20;100.00
38289;BME280;24092;53.370;-6.588;2022-08-21T08:54:00;100880.15;;;14.15;100.00
38289;BME280;24092;53.370;-6.588;2022-08-21T08:56:31;100878.16;;;14.79;100.00
38289;BME280;24092;53.370;-6.588;2022-08-21T08:59:02;100881.41;;;15.26;100.00
38289;BME280;24092;53.370;-6.588;2022-08-21T09:01:34;100884.14;;;15.57;100.00
38289;BME280;24092;53.370;-6.588;2022-08-21T09:04:02;100891.31;;;16.74;100.00
38289;BME280;24092;53.370;-6.588;2022-08-21T09:06:37;100892.02;;;16.86;100.00
38289;BME280;24092;53.370;-6.588;2022-08-21T09:09:20;100888.04;;;18.11;100.00
38289;BME280;24092;53.370;-6.588;2022-08-21T09:12:00;100885.32;;;16.60;100.00
38289;BME280;24092;53.370;-6.588;2022-08-21T09:14:38;100880.73;;;15.55;100.00
38289;BME280;24092;53.370;-6.588;2022-08-21T09:17:17;100878.97;;;15.53;100.00
38289;BME280;24092;53.370;-6.588;2022-08-21T09:19:58;100876.68;;;15.02;100.00
38289;BME280;24092;53.370;-6.588;2022-08-21T09:22:33;100876.88;;;16.21;100.00
38289;BME280;24092;53.370;-6.588;2022-08-21T09:25:12;100872.85;;;17.10;97.86
38289;BME280;24092;53.370;-6.588;2022-08-21T09:27:41;100881.69;;;16.26;99.77
38289;BME280;24092;53.370;-6.588;2022-08-21T09:30:10;100879.30;;;16.65;92.78
38289;BME280;24092;53.370;-6.588;2022-08-21T09:32:38;100880.39;;;16.41;93.64
38289;BME280;24092;53.370;-6.588;2022-08-21T09:35:09;100882.56;;;14.81;100.00
38289;BME280;24092;53.370;-6.588;2022-08-21T09:37:49;100886.56;;;14.63;100.00
38289;BME280;24092;53.370;-6.588;2022-08-21T09:40:26;100888.44;;;13.76;100.00
38289;BME280;24092;53.370;-6.588;2022-08-21T09:42:56;100884.71;;;12.39;100.00
38289;BME280;24092;53.370;-6.588;2022-08-21T09:45:23;100888.77;;;13.71;100.00
38289;BME280;24092;53.370;-6.588;2022-08-21T09:47:50;100880.01;;;12.85;100.00
38289;BME280;24092;53.370;-6.588;2022-08-21T09:50:20;100884.69;;;12.48;100.00
38289;BME280;24092;53.370;-6.588;2022-08-21T09:52:50;100886.29;;;13.96;100.00
38289;BME280;24092;53.370;-6.588;2022-08-21T09:55:23;100885.73;;;13.69;100.00
38289;BME280;24092;53.370;-6.588;2022-08-21T09:57:54;100885.56;;;12.83;100.00
38289;BME280;24092;53.370;-6.588;2022-08-21T10:00:26;100888.70;;;11.93;100.00
38289;BME280;24092;53.370;-6.588;2022-08-21T10:02:53;100889.07;;;11.50;100.00
38289;BME280;24092;53.370;-6.588;2022-08-21T10:05:23;100884.10;;;13.48;100.00
38289;BME280;24092;53.370;-6.588;2022-08-21T10:07:51;100877.65;;;13.05;100.00
38289;BME280;24092;53.370;-6.588;2022-08-21T10:10:21;100875.77;;;12.92;100.00
38289;BME280;24092;53.370;-6.588;2022-08-21T10:12:53;100877.47;;;14.35;100.00
38289;BME280;24092;53.370;-6.588;2022-08-21T10:15:31;100872.48;;;14.12;100.00
38289;BME280;24092;53.370;-6.588;2022-08-21T10:18:06;100864.13;;;14.13;98.93
38289;BME280;24092;53.370;-6.588;2022-08-21T10:20:40;100860.00;;;14.30;97.61
38289;BME280;24092;53.370;-6.588;2022-08-21T10:23:26;100866.28;;;14.03;99.97
38289;BME280;24092;53.370;-6.588;2022-08-21T10:25:58;100864.02;;;14.42;100.00
38289;BME280;24092;53.370;-6.588;2022-08-21T10:28:37;100866.94;;;14.08;100.00
38289;BME280;24092;53.370;-6.588;2022-08-21T10:31:13;100860.32;;;14.20;100.00
38289;BME280;24092;53.370;-6.588;2022-08-21T10:33:50;100862.69;;;14.58;96.36
38289;BME280;24092;53.370;-6.588;2022-08-21T10:36:26;100869.02;;;14.19;96.81
38289;BME280;24092;53.370;-6.588;2022-08-21T10:39:06;100870.42;;;13.18;98.52
38289;BME280;24092;53.370;-6.588;2022-08-21T10:41:45;100871.24;;;13.41;100.00
38289;BME280;24092;53.370;-6.588;2022-08-21T10:44:25;100878.69;;;13.29;100.00
38289;BME280;24092;53.370;-6.588;2022-08-21T10:47:02;100875.55;;;12.37;100.00
38289;BME280;24092;53.370;-6.588;2022-08-21T10:49:40;100874.78;;;12.85;100.00
38289;BME280;24092;53.370;-6.588;2022-08-21T10:52:28;100868.52;;;13.25;100.00
38289;BME280;24092;53.370;-6.588;2022-08-21T10:55:04;100872.71;;;13.74;100.00
38289;BME280;24092;53.370;-6.588;2022-08-21T10:57:38;100865.38;;;13.48;99.87
38289;BME280;24092;53.370;-6.588;2022-08-21T11:00:10;100868.14;;;12.70;100.00
38289;BME280;24092;53.370;-6.588;2022-08-21T11:02:41;100866.31;;;13.33;100.00
38289;BME280;24092;53.370;-6.588;2022-08-21T11:05:13;100864.38;;;13.59;99.30
38289;BME280;24092;53.370;-6.588;2022-08-21T11:07:47;100862.46;;;14.08;98.17
38289;BME280;24092;53.370;-6.588;2022-08-21T11:10:21;100860.39;;;14.00;98.59
38289;BME280;24092;53.370;-6.588;2022-08-21T11:12:52;100858.82;;;14.37;95.97
38289;BME280;24092;53.370;-6.588;2022-08-21T11:15:28;100862.59;;;15.11;93.44
38289;BME280;24092;53.370;-6.588;2022-08-21T11:18:04;100865.33;;;14.83;91.85
38289;BME280;24092;53.370;-6.588;2022-08-21T11:20:42;100860.69;;;14.95;92.56
38289;BME280;24092;53.370;-6.588;2022-08-21T11:23:17;100859.10;;;15.27;88.75
38289;BME280;24092;53.370;-6.588;2022-08-21T11:25:50;100864.26;;;14.43;91.14
38289;BME280;24092;53.370;-6.588;2022-08-21T11:28:23;100864.89;;;13.72;92.68
38289;BME280;24092;53.370;-6.588;2022-08-21T11:31:06;100861.04;;;12.95;93.79
38289;BME280;24092;53.370;-6.588;2022-08-21T11:33:48;100867.57;;;13.63;95.19
38289;BME280;24092;53.370;-6.588;2022-08-21T11:36:25;100861.28;;;15.04;91.22
38289;BME280;24092;53.370;-6.588;2022-08-21T11:39:02;100864.92;;;14.55;93.47
38289;BME280;24092;53.370;-6.588;2022-08-21T11:41:37;100863.88;;;13.69;97.30
38289;BME280;24092;53.370;-6.588;2022-08-21T11:44:12;100862.34;;;13.98;95.13
38289;BME280;24092;53.370;-6.588;2022-08-21T11:46:47;100855.62;;;15.05;93.87
38289;BME280;24092;53.370;-6.588;2022-08-21T11:49:25;100858.83;;;14.64;93.87
38289;BME280;24092;53.370;-6.588;2022-08-21T11:52:02;100856.35;;;14.48;91.68
38289;BME280;24092;53.370;-6.588;2022-08-21T11:54:38;100858.21;;;14.78;92.80
38289;BME280;24092;53.370;-6.588;2022-08-21T11:57:15;100856.06;;;14.43;92.82
38289;BME280;24092;53.370;-6.588;2022-08-21T11:59:48;100855.85;;;14.63;92.15
38289;BME280;24092;53.370;-6.588;2022-08-21T12:02:21;100848.31;;;14.92;91.15
38289;BME280;24092;53.370;-6.588;2022-08-21T12:04:53;100849.98;;;14.75;90.07
38289;BME280;24092;53.370;-6.588;2022-08-21T12:07:33;100853.18;;;15.38;92.39
38289;BME280;24092;53.370;-6.588;2022-08-21T12:10:05;100854.25;;;15.66;89.73
38289;BME280;24092;53.370;-6.588;2022-08-21T12:12:35;100855.45;;;14.68;92.20
38289;BME280;24092;53.370;-6.588;2022-08-21T12:15:23;100856.38;;;14.48;94.04
38289;BME280;24092;53.370;-6.588;2022-08-21T12:17:55;100854.20;;;15.06;93.31
38289;BME280;24092;53.370;-6.588;2022-08-21T12:20:34;100852.58;;;14.14;92.51
38289;BME280;24092;53.370;-6.588;2022-08-21T12:23:12;100852.24;;;11.87;100.00
38289;BME280;24092;53.370;-6.588;2022-08-21T12:25:44;100858.02;;;14.22;92.10
38289;BME280;24092;53.370;-6.588;2022-08-21T12:28:16;100848.45;;;14.70;92.10
38289;BME280;24092;53.370;-6.588;2022-08-21T12:30:49;100847.29;;;14.76;90.80
38289;BME280;24092;53.370;-6.588;2022-08-21T12:33:23;100848.16;;;13.31;94.88
38289;BME280;24092;53.370;-6.588;2022-08-21T12:35:53;100843.84;;;12.35;96.82
38289;BME280;24092;53.370;-6.588;2022-08-21T12:38:33;100847.67;;;12.96;96.75
38289;BME280;24092;53.370;-6.588;2022-08-21T12:41:05;100848.97;;;14.75;91.64
38289;BME280;24092;53.370;-6.588;2022-08-21T12:43:35;100851.30;;;15.05;91.10
38289;BME280;24092;53.370;-6.588;2022-08-21T12:46:05;100849.82;;;14.71;91.50
38289;BME280;24092;53.370;-6.588;2022-08-21T12:48:42;100851.46;;;15.15;90.26
38289;BME280;24092;53.370;-6.588;2022-08-21T12:51:15;100849.61;;;15.49;89.42